createdAt,value
2022-08-17T00:00:34.613Z,4.13
2022-08-17T00:03:13.623Z,4.20
2022-08-17T00:05:48.804Z,3.85
2022-08-17T00:08:17.892Z,3.90
2022-08-17T00:10:46.655Z,3.70
2022-08-17T00:13:25.405Z,4.35
2022-08-17T00:15:56.668Z,4.00
2022-08-17T00:18:58.391Z,4.00
2022-08-17T00:21:11.773Z,3.90
2022-08-17T00:31:11.812Z,3.80
2022-08-17T00:33:40.368Z,3.75
2022-08-17T00:36:07.661Z,3.92
2022-08-17T00:38:36.286Z,4.60
2022-08-17T00:41:07.247Z,4.38
2022-08-17T00:44:01.291Z,4.53
2022-08-17T00:55:25.251Z,4.18
2022-08-17T00:57:56.784Z,4.00
2022-08-17T01:00:28.379Z,4.10
2022-08-17T01:02:59.767Z,3.88
2022-08-17T01:05:29.837Z,8.57
2022-08-17T01:07:58.799Z,10.35
2022-08-17T01:10:58.384Z,6.00
2022-08-17T01:13:30.730Z,5.20
2022-08-17T01:16:17.928Z,11.35
2022-08-17T01:18:48.102Z,11.02
2022-08-17T01:21:43.923Z,6.35
2022-08-17T01:24:10.738Z,5.88
2022-08-17T01:26:41.038Z,6.10
2022-08-17T01:29:08.208Z,5.15
2022-08-17T01:31:39.400Z,4.70
2022-08-17T01:34:09.619Z,4.85
2022-08-17T01:36:38.915Z,4.22
2022-08-17T01:39:09.737Z,4.13
2022-08-17T01:41:38.036Z,4.10
2022-08-17T01:44:07.852Z,3.85
2022-08-17T01:51:37.929Z,4.15
2022-08-17T01:54:09.693Z,4.32
2022-08-17T01:56:42.848Z,4.32
2022-08-17T01:59:10.485Z,4.05
2022-08-17T02:01:38.092Z,4.10
2022-08-17T02:04:06.860Z,4.18
2022-08-17T02:06:45.119Z,4.03
2022-08-17T02:09:17.059Z,4.43
2022-08-17T02:11:45.317Z,4.80
2022-08-17T02:14:13.443Z,4.28
2022-08-17T02:16:41.515Z,3.78
2022-08-17T02:19:11.539Z,3.72
2022-08-17T02:21:40.687Z,3.88
2022-08-17T02:24:10.942Z,3.90
2022-08-17T02:26:37.807Z,3.83
2022-08-17T02:29:04.867Z,3.65
2022-08-17T02:31:32.046Z,3.97
2022-08-17T02:34:04.797Z,4.10
2022-08-17T02:36:36.213Z,3.97
2022-08-17T02:39:07.045Z,3.65
2022-08-17T02:41:34.017Z,3.67
2022-08-17T02:44:01.144Z,4.00
2022-08-17T02:51:31.433Z,4.47
2022-08-17T02:54:02.047Z,3.90
2022-08-17T02:56:45.194Z,3.70
2022-08-17T02:59:12.095Z,3.90
2022-08-17T03:01:39.797Z,3.50
2022-08-17T03:04:06.745Z,3.50
2022-08-17T03:06:33.884Z,3.75
2022-08-17T03:09:00.788Z,3.58
2022-08-17T03:11:27.591Z,3.90
2022-08-17T03:13:54.910Z,3.85
2022-08-17T03:16:21.782Z,3.60
2022-08-17T03:18:48.562Z,3.75
2022-08-17T03:21:15.453Z,3.90
2022-08-17T03:23:42.336Z,3.45
2022-08-17T03:26:15.402Z,3.58
2022-08-17T03:28:43.118Z,3.40
2022-08-17T03:31:09.964Z,3.85
2022-08-17T03:33:36.747Z,3.80
2022-08-17T03:36:03.874Z,3.55
2022-08-17T03:38:38.929Z,3.35
2022-08-17T03:41:07.014Z,3.85
2022-08-17T03:43:52.528Z,3.85
2022-08-17T03:50:44.364Z,3.63
2022-08-17T03:53:34.671Z,4.03
2022-08-17T03:56:24.274Z,3.95
2022-08-17T03:58:51.345Z,3.55
2022-08-17T04:01:18.164Z,3.70
2022-08-17T04:03:45.276Z,3.88
2022-08-17T04:06:12.189Z,3.70
2022-08-17T04:08:39.137Z,3.60
2022-08-17T04:11:06.026Z,3.70
2022-08-17T04:13:32.936Z,3.80
2022-08-17T04:16:00.077Z,3.75
2022-08-17T04:18:27.085Z,4.40
2022-08-17T04:20:54.372Z,4.57
2022-08-17T04:23:21.566Z,4.43
2022-08-17T04:25:50.582Z,4.43
2022-08-17T04:28:18.913Z,4.38
2022-08-17T04:30:47.361Z,3.92
2022-08-17T04:33:26.231Z,4.07
2022-08-17T04:36:01.782Z,3.85
2022-08-17T04:38:32.175Z,4.53
2022-08-17T04:41:18.584Z,4.40
2022-08-17T04:43:48.006Z,4.32
2022-08-17T04:46:18.663Z,3.92
2022-08-17T04:53:29.667Z,4.40
2022-08-17T04:55:58.949Z,4.22
2022-08-17T04:58:25.911Z,3.90
2022-08-17T05:00:52.811Z,4.00
2022-08-17T05:03:19.760Z,3.85
2022-08-17T05:05:49.977Z,4.03
2022-08-17T05:08:19.907Z,3.63
2022-08-17T05:10:48.608Z,4.25
2022-08-17T05:13:18.313Z,3.92
2022-08-17T05:15:48.565Z,3.75
2022-08-17T05:18:17.480Z,3.95
2022-08-17T05:20:45.294Z,4.40
2022-08-17T05:23:15.105Z,4.53
2022-08-17T05:25:50.459Z,4.22
2022-08-17T05:28:19.656Z,4.60
2022-08-17T05:30:51.086Z,4.40
2022-08-17T05:33:20.868Z,4.85
2022-08-17T05:35:50.362Z,4.38
2022-08-17T05:38:20.088Z,4.65
2022-08-17T05:40:47.291Z,4.93
2022-08-17T05:43:19.417Z,4.15
2022-08-17T05:46:04.001Z,4.30
2022-08-17T05:53:14.974Z,4.35
2022-08-17T05:55:56.738Z,4.40
2022-08-17T05:58:42.597Z,4.15
2022-08-17T06:01:32.131Z,4.00
2022-08-17T06:04:21.714Z,4.25
2022-08-17T06:07:12.137Z,4.18
2022-08-17T06:09:47.083Z,4.05
2022-08-17T06:12:40.042Z,3.85
2022-08-17T06:15:19.632Z,4.07
2022-08-17T06:17:46.945Z,5.22
2022-08-17T06:20:16.024Z,8.48
2022-08-17T06:22:49.499Z,6.38
2022-08-17T06:25:26.540Z,4.70
2022-08-17T06:28:03.334Z,4.35
2022-08-17T06:30:35.742Z,3.83
2022-08-17T06:33:28.786Z,4.25
2022-08-17T06:36:19.424Z,3.70
2022-08-17T06:39:16.853Z,4.10
2022-08-17T06:41:52.499Z,4.40
2022-08-17T06:44:43.668Z,3.58
2022-08-17T06:47:15.593Z,4.15
2022-08-17T06:54:59.819Z,4.28
2022-08-17T06:57:31.122Z,3.85
2022-08-17T07:00:05.989Z,4.55
2022-08-17T07:02:57.786Z,4.70
2022-08-17T07:05:30.662Z,4.38
2022-08-17T07:08:03.289Z,3.80
2022-08-17T07:10:46.981Z,3.90
2022-08-17T07:13:57.677Z,3.65
2022-08-17T07:16:30.860Z,3.95
2022-08-17T07:18:59.520Z,3.50
2022-08-17T07:21:26.647Z,3.80
2022-08-17T07:24:29.566Z,3.70
2022-08-17T07:27:10.403Z,4.30
2022-08-17T07:29:50.799Z,4.80
2022-08-17T07:32:46.097Z,6.57
2022-08-17T07:35:23.149Z,5.45
2022-08-17T07:38:24.660Z,4.60
2022-08-17T07:41:02.605Z,4.30
2022-08-17T07:48:12.932Z,5.50
2022-08-17T07:50:43.131Z,7.45
2022-08-17T07:53:23.290Z,6.57
2022-08-17T08:00:46.819Z,5.85
2022-08-17T08:03:32.031Z,5.07
2022-08-17T08:06:02.352Z,5.47
2022-08-17T08:08:47.175Z,5.70
2022-08-17T08:11:28.405Z,5.70
2022-08-17T08:13:55.304Z,5.88
2022-08-17T08:16:34.794Z,5.90
2022-08-17T08:19:03.824Z,6.10
2022-08-17T08:21:35.547Z,5.50
2022-08-17T08:24:18.285Z,6.38
2022-08-17T08:27:10.465Z,6.38
2022-08-17T08:29:47.046Z,5.93
2022-08-17T08:32:32.229Z,5.65
2022-08-17T08:35:08.281Z,5.97
2022-08-17T08:37:50.638Z,5.30
2022-08-17T08:40:55.249Z,5.15
2022-08-17T08:43:43.241Z,5.30
2022-08-17T08:46:41.429Z,5.53
2022-08-17T08:49:19.650Z,4.95
2022-08-17T08:51:59.579Z,5.20
2022-08-17T08:54:47.682Z,5.00
2022-08-17T09:05:14.289Z,5.35
2022-08-17T09:07:58.529Z,4.95
2022-08-17T09:10:34.978Z,5.60
2022-08-17T09:13:09.860Z,5.07
2022-08-17T09:15:49.175Z,5.53
2022-08-17T09:19:02.816Z,5.05
2022-08-17T09:21:48.417Z,5.38
2022-08-17T09:24:40.050Z,7.82
2022-08-17T09:27:16.256Z,4.97
2022-08-17T09:32:17.683Z,5.03
2022-08-17T09:35:00.450Z,5.00
2022-08-17T09:37:30.360Z,4.97
2022-08-17T09:40:15.862Z,4.68
2022-08-17T09:42:50.728Z,4.60
2022-08-17T09:45:51.254Z,4.50
2022-08-17T09:48:37.767Z,4.20
2022-08-17T09:53:37.499Z,4.70
2022-08-17T09:56:16.491Z,5.03
2022-08-17T10:03:40.107Z,4.63
2022-08-17T10:06:21.790Z,4.22
2022-08-17T10:08:52.598Z,4.28
2022-08-17T10:11:57.989Z,4.25
2022-08-17T10:14:53.629Z,4.57
2022-08-17T10:17:50.747Z,3.85
2022-08-17T10:20:26.367Z,4.03
2022-08-17T10:23:39.072Z,4.03
2022-08-17T10:26:24.843Z,4.30
2022-08-17T10:28:58.727Z,4.00
2022-08-17T10:31:35.219Z,4.40
2022-08-17T10:34:21.213Z,4.13
2022-08-17T10:37:13.679Z,5.47
2022-08-17T10:40:04.418Z,4.88
2022-08-17T10:42:44.250Z,4.70
2022-08-17T10:45:20.064Z,4.47
2022-08-17T10:48:30.300Z,4.32
2022-08-17T10:50:59.179Z,4.60
2022-08-17T10:53:32.065Z,4.55
2022-08-17T10:56:14.058Z,4.80
2022-08-17T10:59:37.627Z,4.90
2022-08-17T11:02:14.494Z,5.20
2022-08-17T11:05:00.529Z,5.95
2022-08-17T11:07:43.748Z,6.03
2022-08-17T11:10:21.888Z,5.20
2022-08-17T11:13:18.466Z,5.25
2022-08-17T11:15:58.728Z,4.85
2022-08-17T11:18:43.507Z,4.75
2022-08-17T11:21:42.307Z,4.65
2022-08-17T11:24:30.947Z,4.28
2022-08-17T11:27:21.962Z,4.30
2022-08-17T11:30:04.264Z,4.38
2022-08-17T11:32:34.289Z,4.10
2022-08-17T11:35:12.374Z,3.80
2022-08-17T11:37:48.552Z,3.58
2022-08-17T11:40:26.395Z,3.60
2022-08-17T11:43:13.332Z,3.95
2022-08-17T11:45:46.337Z,3.50
2022-08-17T11:48:37.770Z,3.70
2022-08-17T11:51:34.964Z,3.88
2022-08-17T11:57:21.499Z,3.53
2022-08-17T12:00:45.148Z,3.60
2022-08-17T12:03:24.880Z,3.13
2022-08-17T12:06:20.711Z,3.60
2022-08-17T12:08:55.352Z,3.50
2022-08-17T12:12:01.707Z,3.50
2022-08-17T12:15:05.975Z,3.50
2022-08-17T12:17:25.876Z,3.35
2022-08-17T12:20:32.147Z,3.65
2022-08-17T12:23:21.707Z,3.55
2022-08-17T12:26:24.806Z,3.88
2022-08-17T12:29:00.572Z,3.67
2022-08-17T12:31:43.326Z,3.75
2022-08-17T12:34:23.462Z,3.90
2022-08-17T12:36:52.252Z,3.60
2022-08-17T12:39:24.977Z,3.60
2022-08-17T12:42:01.518Z,3.70
2022-08-17T12:44:35.297Z,3.55
2022-08-17T12:47:22.190Z,3.78
2022-08-17T12:49:54.791Z,3.70
2022-08-17T12:52:26.711Z,3.65
2022-08-17T12:55:02.911Z,4.00
2022-08-17T13:02:27.283Z,3.53
2022-08-17T13:04:57.121Z,3.63
2022-08-17T13:07:30.082Z,3.60
2022-08-17T13:09:57.049Z,3.50
2022-08-17T13:12:32.873Z,3.78
2022-08-17T13:22:28.153Z,3.40
2022-08-17T13:25:16.674Z,3.28
2022-08-17T13:28:02.606Z,3.20
2022-08-17T13:30:48.305Z,3.58
2022-08-17T13:33:43.389Z,4.82
2022-08-17T13:36:12.698Z,3.35
2022-08-17T13:38:51.718Z,3.40
2022-08-17T13:41:37.387Z,2.90
2022-08-17T13:44:39.220Z,3.47
2022-08-17T13:47:22.561Z,2.95
2022-08-17T13:49:50.389Z,3.00
2022-08-17T13:52:40.327Z,2.90
2022-08-17T13:55:22.553Z,3.00
2022-08-17T13:57:59.559Z,2.67
2022-08-17T14:00:36.381Z,3.30
2022-08-17T14:03:04.546Z,2.92
2022-08-17T14:05:32.372Z,3.00
2022-08-17T14:08:06.719Z,3.03
2022-08-17T14:10:36.620Z,2.73
2022-08-17T14:13:05.064Z,3.00
2022-08-17T14:16:28.449Z,3.20
2022-08-17T14:18:57.217Z,3.00
2022-08-17T14:21:24.378Z,3.70
2022-08-17T14:23:54.886Z,3.17
2022-08-17T14:26:21.961Z,3.30
2022-08-17T14:28:56.220Z,3.20
2022-08-17T14:31:23.333Z,2.95
2022-08-17T14:33:50.278Z,2.80
2022-08-17T14:36:17.045Z,2.83
2022-08-17T14:38:45.162Z,3.10
2022-08-17T14:41:30.702Z,3.45
2022-08-17T14:44:16.964Z,3.25
2022-08-17T14:46:45.463Z,3.07
2022-08-17T14:49:15.583Z,4.07
2022-08-17T14:51:43.974Z,3.40
2022-08-17T14:54:33.710Z,3.42
2022-08-17T14:57:24.515Z,3.40
2022-08-17T14:59:48.877Z,3.20
2022-08-17T15:02:20.605Z,3.28
2022-08-17T15:04:49.248Z,2.88
2022-08-17T15:07:18.136Z,2.83
2022-08-17T15:09:45.668Z,3.05
2022-08-17T15:12:28.624Z,2.90
2022-08-17T15:15:00.683Z,3.00
2022-08-17T15:22:24.496Z,2.75
2022-08-17T15:24:51.406Z,2.70
2022-08-17T15:27:18.167Z,2.90
2022-08-17T15:29:58.422Z,2.90
2022-08-17T15:32:30.408Z,2.75
2022-08-17T15:34:59.389Z,2.70
2022-08-17T15:37:28.157Z,2.63
2022-08-17T15:39:55.825Z,3.10
2022-08-17T15:42:23.594Z,2.90
2022-08-17T15:44:50.754Z,2.90
2022-08-17T15:47:17.766Z,2.67
2022-08-17T15:49:46.785Z,2.67
2022-08-17T15:52:26.870Z,2.83
2022-08-17T15:54:56.891Z,2.45
2022-08-17T15:57:25.693Z,3.00
2022-08-17T15:59:58.705Z,2.70
2022-08-17T16:03:46.050Z,3.15
2022-08-17T16:05:24.781Z,3.30
2022-08-17T16:07:52.438Z,2.97
2022-08-17T16:10:19.717Z,2.67
2022-08-17T16:12:48.446Z,2.88
2022-08-17T16:15:16.405Z,3.00
2022-08-17T16:22:40.507Z,3.10
2022-08-17T16:25:22.186Z,2.90
2022-08-17T16:27:53.703Z,2.80
2022-08-17T16:30:25.287Z,2.42
2022-08-17T16:32:54.106Z,2.42
2022-08-17T16:35:25.114Z,2.97
2022-08-17T16:37:55.839Z,2.90
2022-08-17T16:40:26.442Z,2.55
2022-08-17T16:42:54.394Z,3.90
2022-08-17T16:45:24.806Z,3.70
2022-08-17T16:47:52.286Z,3.10
2022-08-17T16:50:23.129Z,2.90
2022-08-17T16:52:51.407Z,2.60
2022-08-17T16:55:21.626Z,2.78
2022-08-17T16:57:50.682Z,2.50
2022-08-17T17:00:19.460Z,2.72
2022-08-17T17:02:48.174Z,2.60
2022-08-17T17:05:56.240Z,2.50
2022-08-17T17:08:28.012Z,2.53
2022-08-17T17:10:57.415Z,2.40
2022-08-17T17:13:32.267Z,2.60
2022-08-17T17:16:11.152Z,2.47
2022-08-17T17:23:34.838Z,2.47
2022-08-17T17:26:30.336Z,2.80
2022-08-17T17:29:22.395Z,2.87
2022-08-17T17:32:31.042Z,2.97
2022-08-17T17:35:05.139Z,3.20
2022-08-17T17:37:34.913Z,2.88
2022-08-17T17:40:28.874Z,3.33
2022-08-17T17:43:14.280Z,4.03
2022-08-17T17:46:26.485Z,3.40
2022-08-17T17:48:53.211Z,3.70
2022-08-17T17:52:09.970Z,3.72
2022-08-17T17:55:15.289Z,3.05
2022-08-17T17:58:14.246Z,3.67
2022-08-17T18:00:59.804Z,4.32
2022-08-17T18:03:45.433Z,3.58
2022-08-17T18:06:28.531Z,3.37
2022-08-17T18:09:03.364Z,3.50
2022-08-17T18:11:45.146Z,3.30
2022-08-17T18:14:38.723Z,3.40
2022-08-17T18:17:06.449Z,3.25
2022-08-17T18:20:37.116Z,2.95
2022-08-17T18:23:23.161Z,2.90
2022-08-17T18:25:54.936Z,3.15
2022-08-17T18:28:30.250Z,3.50
2022-08-17T18:31:05.622Z,3.28
2022-08-17T18:33:32.952Z,3.15
2022-08-17T18:36:01.597Z,3.03
2022-08-17T18:38:38.160Z,3.15
2022-08-17T18:41:16.237Z,3.22
2022-08-17T18:43:52.925Z,3.45
2022-08-17T18:46:35.923Z,3.13
2022-08-17T18:49:20.456Z,3.10
2022-08-17T18:51:47.300Z,3.47
2022-08-17T18:54:23.559Z,3.40
2022-08-17T18:56:56.328Z,3.35
2022-08-17T18:59:28.396Z,3.50
2022-08-17T19:02:28.349Z,3.25
2022-08-17T19:05:08.009Z,3.50
2022-08-17T19:07:45.168Z,3.17
2022-08-17T19:10:23.043Z,3.40
2022-08-17T19:12:53.027Z,3.40
2022-08-17T19:15:34.141Z,3.60
2022-08-17T19:22:57.911Z,3.45
2022-08-17T19:25:34.328Z,3.50
2022-08-17T19:28:21.674Z,3.60
2022-08-17T19:30:54.735Z,3.50
2022-08-17T19:33:22.423Z,3.55
2022-08-17T19:36:27.727Z,3.45
2022-08-17T19:39:19.978Z,3.28
2022-08-17T19:41:54.612Z,3.88
2022-08-17T19:44:47.145Z,3.40
2022-08-17T19:48:02.844Z,3.60
2022-08-17T19:50:53.270Z,3.60
2022-08-17T19:54:04.744Z,3.83
2022-08-17T19:56:54.602Z,3.95
2022-08-17T19:59:46.349Z,3.75
2022-08-17T20:02:19.345Z,4.03
2022-08-17T20:04:49.398Z,3.45
2022-08-17T20:07:25.807Z,3.60
2022-08-17T20:10:06.703Z,3.53
2022-08-17T20:12:36.888Z,3.80
2022-08-17T20:15:06.533Z,3.92
2022-08-17T20:17:44.958Z,4.10
2022-08-17T20:25:09.194Z,3.75
2022-08-17T20:27:50.913Z,3.60
2022-08-17T20:30:34.651Z,3.70
2022-08-17T20:33:02.692Z,4.07
2022-08-17T20:35:38.713Z,3.80
2022-08-17T20:40:39.930Z,3.40
2022-08-17T20:43:53.011Z,3.80
2022-08-17T20:46:24.278Z,3.35
2022-08-17T20:48:55.220Z,3.97
2022-08-17T20:51:33.034Z,4.30
2022-08-17T20:54:24.476Z,4.47
2022-08-17T20:56:56.255Z,3.90
2022-08-17T20:59:25.408Z,3.65
2022-08-17T21:02:23.246Z,3.72
2022-08-17T21:04:50.843Z,3.70
2022-08-17T21:07:43.676Z,3.90
2022-08-17T21:10:19.504Z,4.20
2022-08-17T21:12:53.016Z,3.97
2022-08-17T21:15:35.082Z,4.20
2022-08-17T21:18:27.373Z,4.25
2022-08-17T21:28:33.776Z,4.50
2022-08-17T21:31:09.001Z,5.32
2022-08-17T21:33:40.032Z,5.38
2022-08-17T21:36:12.877Z,5.45
2022-08-17T21:38:51.543Z,5.10
2022-08-17T21:41:23.663Z,4.65
2022-08-17T21:43:52.376Z,5.07
2022-08-17T21:46:30.406Z,4.90
2022-08-17T21:49:09.125Z,5.03
2022-08-17T21:51:50.504Z,5.10
2022-08-17T21:54:31.304Z,4.95
2022-08-17T21:57:00.762Z,4.60
2022-08-17T21:59:31.933Z,4.65
2022-08-17T22:02:07.373Z,4.45
2022-08-17T22:04:40.009Z,4.80
2022-08-17T22:07:13.070Z,4.65
2022-08-17T22:09:50.066Z,4.47
2022-08-17T22:12:22.464Z,4.93
2022-08-17T22:15:09.674Z,5.70
2022-08-17T22:17:37.934Z,4.95
2022-08-17T22:25:01.827Z,5.32
2022-08-17T22:28:08.176Z,5.47
2022-08-17T22:30:58.279Z,5.68
2022-08-17T22:33:43.425Z,5.78
2022-08-17T22:36:29.041Z,6.47
2022-08-17T22:39:26.119Z,6.45
2022-08-17T22:41:57.266Z,6.50
2022-08-17T22:44:30.111Z,6.60
2022-08-17T22:47:14.723Z,7.15
2022-08-17T22:49:57.884Z,6.97
2022-08-17T22:53:15.529Z,7.45
2022-08-17T22:56:12.949Z,7.22
2022-08-17T22:59:13.908Z,7.35
2022-08-17T23:01:43.235Z,7.35
2022-08-17T23:04:29.747Z,7.20
2022-08-17T23:06:56.740Z,7.30
2022-08-17T23:09:23.826Z,7.30
2022-08-17T23:11:58.940Z,8.10
2022-08-17T23:14:31.531Z,7.88
2022-08-17T23:17:02.115Z,6.43
2022-08-17T23:19:31.791Z,7.80
2022-08-17T23:22:55.419Z,7.75
2022-08-17T23:25:30.031Z,8.10
2022-08-17T23:28:01.775Z,7.70
2022-08-17T23:30:31.295Z,7.95
2022-08-17T23:33:01.320Z,7.85
2022-08-17T23:35:40.223Z,8.20
2022-08-17T23:38:09.902Z,8.07
2022-08-17T23:40:39.186Z,7.85
2022-08-17T23:50:45.909Z,7.43
2022-08-17T23:53:12.927Z,7.90
2022-08-17T23:55:40.014Z,7.53
2022-08-17T23:58:06.976Z,7.78
